Time;durP1;ratioP1;P1;durP2;ratioP2;P2;SDS_P1;SDS_P2;PMS_P1;PMS_P2;Temp;Humidity;BMP_temperature;BMP_pressure;BME280_temperature;BME280_humidity;BME280_pressure;Samples;Min_cycle;Max_cycle;Signal;HPM_P1;HPM_P2
2023/12/28 00:02:24;;;;;;;4.67;2.83;;;;;;;;;;5027671;28;20041;-65
2023/12/28 00:04:50;;;;;;;6.30;3.33;;;;;;;;;;5028356;28;20417;-65
2023/12/28 00:07:18;;;;;;;4.73;2.70;;;;;;;;;;5028895;28;20172;-65
2023/12/28 00:09:44;;;;;;;8.20;3.73;;;;;;;;;;5028718;28;20053;-65
2023/12/28 00:12:10;;;;;;;5.07;2.73;;;;;;;;;;5028687;28;20041;-65
2023/12/28 00:14:36;;;;;;;6.83;3.50;;;;;;;;;;5027892;28;20037;-65
2023/12/28 00:17:04;;;;;;;5.00;2.80;;;;;;;;;;5028409;28;20096;-64
2023/12/28 00:19:30;;;;;;;5.63;3.07;;;;;;;;;;5028537;28;20092;-64
2023/12/28 00:21:56;;;;;;;5.83;3.27;;;;;;;;;;5028052;28;20560;-63
2023/12/28 00:24:22;;;;;;;7.70;3.43;;;;;;;;;;5031175;28;20084;-64
2023/12/28 00:26:48;;;;;;;7.43;3.07;;;;;;;;;;5032028;28;20041;-64
2023/12/28 00:29:15;;;;;;;6.07;2.67;;;;;;;;;;5032292;28;20180;-65
2023/12/28 00:31:40;;;;;;;8.73;3.00;;;;;;;;;;5032316;28;20140;-64
2023/12/28 00:34:06;;;;;;;6.90;3.60;;;;;;;;;;5032637;28;20153;-64
2023/12/28 00:36:32;;;;;;;7.30;3.40;;;;;;;;;;5032016;28;20060;-64
2023/12/28 00:38:58;;;;;;;6.90;4.10;;;;;;;;;;5031673;28;20499;-64
2023/12/28 00:41:24;;;;;;;6.37;3.77;;;;;;;;;;5032153;28;20077;-64
2023/12/28 00:43:50;;;;;;;9.10;3.27;;;;;;;;;;5032254;28;20092;-64
2023/12/28 00:46:16;;;;;;;6.63;3.30;;;;;;;;;;5031984;28;20046;-64
2023/12/28 00:48:42;;;;;;;6.73;3.23;;;;;;;;;;5032136;28;20128;-64
2023/12/28 00:51:08;;;;;;;9.27;3.40;;;;;;;;;;5031890;28;20567;-64
2023/12/28 00:53:36;;;;;;;5.37;2.70;;;;;;;;;;5031196;28;20049;-64
2023/12/28 00:56:02;;;;;;;8.20;3.50;;;;;;;;;;5032072;28;20045;-64
2023/12/28 00:58:28;;;;;;;6.20;3.27;;;;;;;;;;5031748;28;20100;-64
2023/12/28 01:00:56;;;;;;;9.80;3.53;;;;;;;;;;5031882;28;21234;-64
2023/12/28 01:03:22;;;;;;;9.10;4.00;;;;;;;;;;5032153;28;20124;-64
2023/12/28 01:05:50;;;;;;;6.07;3.13;;;;;;;;;;5031254;28;20128;-63
2023/12/28 01:08:17;;;;;;;10.93;4.63;;;;;;;;;;5031440;28;20084;-64
2023/12/28 01:10:43;;;;;;;7.93;3.50;;;;;;;;;;5031820;28;20053;-64
2023/12/28 01:13:09;;;;;;;10.47;3.33;;;;;;;;;;5031807;28;20111;-63
2023/12/28 01:15:35;;;;;;;8.60;3.53;;;;;;;;;;5031508;28;20049;-64
2023/12/28 01:18:01;;;;;;;7.50;3.33;;;;;;;;;;5029634;28;20045;-64
2023/12/28 01:20:27;;;;;;;11.10;3.90;;;;;;;;;;5031124;28;20049;-64
2023/12/28 01:22:53;;;;;;;7.87;3.40;;;;;;;;;;5031433;28;20052;-64
2023/12/28 01:25:19;;;;;;;9.90;3.37;;;;;;;;;;5031490;28;20033;-64
2023/12/28 01:27:45;;;;;;;10.40;3.60;;;;;;;;;;5031258;28;20046;-64
2023/12/28 01:30:11;;;;;;;10.90;3.83;;;;;;;;;;5030759;28;20050;-64
2023/12/28 01:32:37;;;;;;;11.17;4.03;;;;;;;;;;5031515;28;20463;-64
2023/12/28 01:35:03;;;;;;;8.80;3.20;;;;;;;;;;5030395;28;20132;-64
2023/12/28 01:37:31;;;;;;;9.03;3.60;;;;;;;;;;5031362;28;20095;-64
2023/12/28 01:39:57;;;;;;;9.27;3.70;;;;;;;;;;5031034;28;20085;-64
2023/12/28 01:42:23;;;;;;;13.33;3.87;;;;;;;;;;5031268;28;20092;-64
2023/12/28 01:44:49;;;;;;;8.17;3.80;;;;;;;;;;5030279;28;20143;-64
2023/12/28 01:47:17;;;;;;;10.43;3.33;;;;;;;;;;5031105;28;20054;-64
2023/12/28 01:49:44;;;;;;;13.20;4.03;;;;;;;;;;5030023;28;20052;-64
2023/12/28 01:52:10;;;;;;;9.80;3.67;;;;;;;;;;5031043;28;20439;-63
2023/12/28 01:54:37;;;;;;;9.67;3.13;;;;;;;;;;5030889;28;20050;-63
2023/12/28 01:57:03;;;;;;;12.67;3.47;;;;;;;;;;5030740;28;20049;-63
2023/12/28 01:59:29;;;;;;;11.83;3.30;;;;;;;;;;5030898;28;20053;-63
2023/12/28 02:01:55;;;;;;;13.40;3.50;;;;;;;;;;5030799;28;20049;-64
2023/12/28 02:04:27;;;;;;;11.80;3.40;;;;;;;;;;5030475;28;20052;-64
2023/12/28 02:06:56;;;;;;;10.77;3.13;;;;;;;;;;5030702;28;20045;-64
2023/12/28 02:09:22;;;;;;;12.17;3.43;;;;;;;;;;5030117;28;20046;-64
2023/12/28 02:11:48;;;;;;;13.80;3.70;;;;;;;;;;5030509;28;20050;-64
2023/12/28 02:14:14;;;;;;;13.20;3.67;;;;;;;;;;5030642;28;20044;-64
2023/12/28 02:16:44;;;;;;;12.87;4.20;;;;;;;;;;5030454;28;20069;-65
2023/12/28 02:19:23;;;;;;;12.30;3.33;;;;;;;;;;5029496;28;20557;-64
2023/12/28 02:21:49;;;;;;;12.13;3.10;;;;;;;;;;5030325;28;20072;-64
2023/12/28 02:24:15;;;;;;;12.67;3.20;;;;;;;;;;5030516;28;20057;-64
2023/12/28 02:26:41;;;;;;;7.03;2.90;;;;;;;;;;5030042;28;20037;-64
2023/12/28 02:29:08;;;;;;;12.83;3.17;;;;;;;;;;5030282;28;20084;-64
2023/12/28 02:31:38;;;;;;;16.60;3.10;;;;;;;;;;5029760;28;20045;-64
2023/12/28 02:34:13;;;;;;;9.73;2.57;;;;;;;;;;5029888;28;20500;-64
2023/12/28 02:36:42;;;;;;;15.23;3.97;;;;;;;;;;5030276;28;20072;-65
2023/12/28 02:39:08;;;;;;;8.93;3.00;;;;;;;;;;5028470;28;20110;-64
2023/12/28 02:41:35;;;;;;;14.63;2.90;;;;;;;;;;5029901;28;20037;-64
2023/12/28 02:44:01;;;;;;;15.70;4.10;;;;;;;;;;5029869;28;20045;-64
2023/12/28 02:46:27;;;;;;;9.47;3.30;;;;;;;;;;5029179;28;20049;-64
2023/12/28 02:48:57;;;;;;;9.93;2.57;;;;;;;;;;5029366;28;20056;-64
2023/12/28 02:51:23;;;;;;;7.73;2.97;;;;;;;;;;5029437;28;20079;-64
2023/12/28 02:53:49;;;;;;;9.47;3.47;;;;;;;;;;5029823;28;20038;-64
2023/12/28 02:56:15;;;;;;;11.20;3.03;;;;;;;;;;5029844;28;20042;-64
2023/12/28 02:58:41;;;;;;;9.67;3.30;;;;;;;;;;5029516;28;20053;-64
2023/12/28 03:01:09;;;;;;;19.00;3.50;;;;;;;;;;5028691;28;20556;-64
2023/12/28 03:03:35;;;;;;;10.90;3.57;;;;;;;;;;5029740;28;20392;-64
2023/12/28 03:06:01;;;;;;;10.30;3.13;;;;;;;;;;5029644;28;20045;-64
2023/12/28 03:08:27;;;;;;;7.50;2.67;;;;;;;;;;5029558;28;20041;-64
2023/12/28 03:10:55;;;;;;;6.70;2.80;;;;;;;;;;5029618;28;20511;-64
2023/12/28 03:13:21;;;;;;;9.50;2.57;;;;;;;;;;5029879;28;20115;-64
2023/12/28 03:15:47;;;;;;;8.67;2.73;;;;;;;;;;5028405;28;20052;-63
2023/12/28 03:18:13;;;;;;;6.97;2.30;;;;;;;;;;5029260;28;20045;-64
2023/12/28 03:20:39;;;;;;;9.67;3.27;;;;;;;;;;5029221;28;20068;-64
2023/12/28 03:23:05;;;;;;;10.43;3.30;;;;;;;;;;5029407;28;20053;-64
2023/12/28 03:25:31;;;;;;;9.73;3.00;;;;;;;;;;5027764;28;20106;-63
2023/12/28 03:27:57;;;;;;;10.63;3.70;;;;;;;;;;5028694;28;20041;-63
2023/12/28 03:30:23;;;;;;;11.37;2.77;;;;;;;;;;5029284;28;20041;-63
2023/12/28 03:32:48;;;;;;;8.53;2.57;;;;;;;;;;5028977;28;20077;-64
2023/12/28 03:35:14;;;;;;;9.43;3.07;;;;;;;;;;5029205;28;20045;-64
2023/12/28 03:37:40;;;;;;;10.00;3.20;;;;;;;;;;5028868;28;20495;-64
2023/12/28 03:40:07;;;;;;;6.80;2.83;;;;;;;;;;5028474;28;20045;-64
2023/12/28 03:42:33;;;;;;;14.03;2.80;;;;;;;;;;5027514;28;20045;-64
2023/12/28 03:44:59;;;;;;;7.57;2.40;;;;;;;;;;5028577;28;20065;-63
2023/12/28 03:47:25;;;;;;;11.90;2.93;;;;;;;;;;5028684;28;20103;-63
2023/12/28 03:49:51;;;;;;;11.90;2.57;;;;;;;;;;5029038;28;20144;-63
2023/12/28 03:52:17;;;;;;;8.07;2.67;;;;;;;;;;5028540;28;20566;-63
2023/12/28 03:54:43;;;;;;;9.83;3.23;;;;;;;;;;5028838;28;20049;-64
2023/12/28 03:57:10;;;;;;;11.47;2.50;;;;;;;;;;5028644;28;20106;-64
2023/12/28 03:59:36;;;;;;;16.03;3.67;;;;;;;;;;5033929;28;20060;-64
2023/12/28 04:02:02;;;;;;;10.83;2.67;;;;;;;;;;5034970;28;20046;-64
2023/12/28 04:04:28;;;;;;;11.43;2.97;;;;;;;;;;5035391;28;20080;-64
2023/12/28 04:06:54;;;;;;;8.20;3.00;;;;;;;;;;5035430;28;20084;-64
2023/12/28 04:09:20;;;;;;;9.03;2.37;;;;;;;;;;5035241;28;20515;-64
2023/12/28 04:11:47;;;;;;;7.33;2.87;;;;;;;;;;5035386;28;20053;-64
2023/12/28 04:14:13;;;;;;;10.50;2.77;;;;;;;;;;5034427;28;20042;-64
2023/12/28 04:16:39;;;;;;;8.83;2.60;;;;;;;;;;5035167;28;20461;-64
2023/12/28 04:19:05;;;;;;;12.60;2.53;;;;;;;;;;5035467;28;20150;-64
2023/12/28 04:21:31;;;;;;;10.30;2.47;;;;;;;;;;5035176;28;20037;-64
2023/12/28 04:23:57;;;;;;;10.27;2.63;;;;;;;;;;5035112;28;20175;-63
2023/12/28 04:26:23;;;;;;;13.70;2.93;;;;;;;;;;5034827;28;20309;-63
2023/12/28 04:28:49;;;;;;;8.13;2.33;;;;;;;;;;5035027;28;20165;-63
2023/12/28 04:31:15;;;;;;;12.03;3.73;;;;;;;;;;5035185;28;20045;-63
2023/12/28 04:33:41;;;;;;;15.57;3.63;;;;;;;;;;5034819;28;20041;-63
2023/12/28 04:36:07;;;;;;;14.07;2.53;;;;;;;;;;5035049;28;20471;-63
2023/12/28 04:38:33;;;;;;;12.47;3.63;;;;;;;;;;5035008;28;20466;-63
2023/12/28 04:41:00;;;;;;;15.00;3.03;;;;;;;;;;5034660;28;20053;-63
2023/12/28 04:43:26;;;;;;;12.80;2.87;;;;;;;;;;5035038;28;20045;-63
2023/12/28 04:45:52;;;;;;;14.60;3.13;;;;;;;;;;5035039;28;20041;-63
2023/12/28 04:48:20;;;;;;;17.23;3.13;;;;;;;;;;5034286;28;20045;-63
2023/12/28 04:50:47;;;;;;;11.10;3.03;;;;;;;;;;5034846;28;20042;-63
2023/12/28 04:53:13;;;;;;;8.60;2.53;;;;;;;;;;5034944;28;20045;-63
2023/12/28 04:55:40;;;;;;;12.67;3.87;;;;;;;;;;5034547;28;20114;-63
2023/12/28 04:58:06;;;;;;;13.00;3.30;;;;;;;;;;5034380;28;20049;-63
2023/12/28 05:00:31;;;;;;;12.13;2.97;;;;;;;;;;5035070;28;20128;-63
2023/12/28 05:02:57;;;;;;;10.37;3.53;;;;;;;;;;5034730;28;20041;-63
2023/12/28 05:05:23;;;;;;;14.73;3.03;;;;;;;;;;5033979;28;20037;-63
2023/12/28 05:07:49;;;;;;;13.73;3.17;;;;;;;;;;5033838;28;20132;-64
2023/12/28 05:10:15;;;;;;;14.43;3.57;;;;;;;;;;5031617;28;20042;-63
2023/12/28 05:12:41;;;;;;;14.47;3.43;;;;;;;;;;5031064;28;20045;-64
2023/12/28 05:15:08;;;;;;;14.23;3.67;;;;;;;;;;5030984;28;20041;-63
2023/12/28 05:17:33;;;;;;;12.93;3.33;;;;;;;;;;5030624;28;20080;-64
2023/12/28 05:20:00;;;;;;;16.23;3.13;;;;;;;;;;5031017;28;20093;-64
2023/12/28 05:22:26;;;;;;;9.57;2.53;;;;;;;;;;5030885;28;20152;-63
2023/12/28 05:24:52;;;;;;;16.37;3.30;;;;;;;;;;5030871;28;20587;-64
2023/12/28 05:27:18;;;;;;;16.77;3.17;;;;;;;;;;5030183;28;20155;-64
2023/12/28 05:29:44;;;;;;;15.63;3.17;;;;;;;;;;5030401;28;20471;-64
2023/12/28 05:32:10;;;;;;;19.20;3.10;;;;;;;;;;5030536;28;20060;-64
2023/12/28 05:34:36;;;;;;;15.27;2.90;;;;;;;;;;5030719;28;20038;-64
2023/12/28 05:37:02;;;;;;;19.10;4.03;;;;;;;;;;5030554;28;20042;-64
2023/12/28 05:39:28;;;;;;;17.90;3.33;;;;;;;;;;5029764;28;20389;-64
2023/12/28 05:41:54;;;;;;;14.80;3.73;;;;;;;;;;5030307;28;20038;-64
2023/12/28 05:44:20;;;;;;;11.87;2.50;;;;;;;;;;5030570;28;20488;-64
2023/12/28 05:46:46;;;;;;;13.90;3.13;;;;;;;;;;5030577;28;20134;-64
2023/12/28 05:49:12;;;;;;;13.30;2.97;;;;;;;;;;5030115;28;20106;-64
2023/12/28 05:51:41;;;;;;;13.50;2.63;;;;;;;;;;5030700;28;20037;-64
2023/12/28 05:54:08;;;;;;;13.00;4.57;;;;;;;;;;5029731;28;20053;-64
2023/12/28 05:56:34;;;;;;;14.17;3.67;;;;;;;;;;5030359;28;20419;-64
2023/12/28 05:59:00;;;;;;;11.70;3.50;;;;;;;;;;5030030;28;20052;-64
2023/12/28 06:01:27;;;;;;;19.47;3.23;;;;;;;;;;5030261;28;20041;-64
2023/12/28 06:03:53;;;;;;;13.20;4.13;;;;;;;;;;5029920;28;20103;-64
2023/12/28 06:06:20;;;;;;;17.33;4.07;;;;;;;;;;5029880;28;20092;-64
2023/12/28 06:08:46;;;;;;;12.87;3.93;;;;;;;;;;5029311;28;20562;-64
2023/12/28 06:11:12;;;;;;;18.73;3.67;;;;;;;;;;5030130;28;20054;-64
2023/12/28 06:13:38;;;;;;;19.63;3.47;;;;;;;;;;5029945;28;20045;-63
2023/12/28 06:16:04;;;;;;;15.63;3.50;;;;;;;;;;5029218;28;20080;-63
2023/12/28 06:18:31;;;;;;;14.40;3.50;;;;;;;;;;5029630;28;20041;-63
2023/12/28 06:20:57;;;;;;;12.23;2.90;;;;;;;;;;5029751;28;20103;-63
2023/12/28 06:23:23;;;;;;;15.60;3.53;;;;;;;;;;5028862;28;20068;-64
2023/12/28 06:25:49;;;;;;;14.63;2.47;;;;;;;;;;5029691;28;20480;-63
2023/12/28 06:28:15;;;;;;;13.47;2.73;;;;;;;;;;5029906;28;20053;-64
2023/12/28 06:30:41;;;;;;;19.73;3.63;;;;;;;;;;5029485;28;20059;-64
2023/12/28 06:33:07;;;;;;;17.97;3.17;;;;;;;;;;5029105;28;20053;-64
2023/12/28 06:35:33;;;;;;;12.10;2.97;;;;;;;;;;5029744;28;20420;-64
2023/12/28 06:37:59;;;;;;;15.17;4.70;;;;;;;;;;5029687;28;20045;-64
2023/12/28 06:40:25;;;;;;;16.00;3.10;;;;;;;;;;5028754;28;20056;-64
2023/12/28 06:42:51;;;;;;;12.80;2.87;;;;;;;;;;5029519;28;20136;-64
2023/12/28 06:45:17;;;;;;;17.00;3.90;;;;;;;;;;5029821;28;20049;-64
2023/12/28 06:47:43;;;;;;;15.23;3.40;;;;;;;;;;5029025;28;20045;-64
2023/12/28 06:50:09;;;;;;;13.50;3.17;;;;;;;;;;5029497;28;20041;-64
2023/12/28 06:52:35;;;;;;;17.30;3.73;;;;;;;;;;5028739;28;20045;-64
2023/12/28 06:55:02;;;;;;;18.80;2.47;;;;;;;;;;5029203;28;20102;-64
2023/12/28 06:57:28;;;;;;;17.63;3.73;;;;;;;;;;5029039;28;20045;-64
2023/12/28 06:59:54;;;;;;;17.73;3.77;;;;;;;;;;5029405;28;20099;-64
2023/12/28 07:02:20;;;;;;;15.97;3.60;;;;;;;;;;5028473;28;20511;-65
2023/12/28 07:04:46;;;;;;;16.67;3.93;;;;;;;;;;5029011;28;20054;-64
2023/12/28 07:07:12;;;;;;;18.90;3.77;;;;;;;;;;5028708;28;20128;-64
2023/12/28 07:09:38;;;;;;;22.57;3.90;;;;;;;;;;5029216;28;20091;-64
2023/12/28 07:12:04;;;;;;;19.83;3.60;;;;;;;;;;5028260;28;20049;-64
2023/12/28 07:14:30;;;;;;;17.47;3.53;;;;;;;;;;5028754;28;20085;-64
2023/12/28 07:16:56;;;;;;;17.50;3.60;;;;;;;;;;5028684;28;20080;-64
2023/12/28 07:19:22;;;;;;;16.60;4.37;;;;;;;;;;5028328;28;20053;-64
2023/12/28 07:21:48;;;;;;;13.20;3.40;;;;;;;;;;5028412;28;20402;-64
2023/12/28 07:24:14;;;;;;;22.50;3.57;;;;;;;;;;5028507;28;20168;-64
2023/12/28 07:26:40;;;;;;;14.90;3.47;;;;;;;;;;5028509;28;20574;-64
2023/12/28 07:29:06;;;;;;;22.03;4.17;;;;;;;;;;5028806;28;20052;-64
2023/12/28 07:31:32;;;;;;;18.20;3.67;;;;;;;;;;5028490;28;20037;-64
2023/12/28 07:33:58;;;;;;;15.40;3.43;;;;;;;;;;5027251;28;20045;-64
2023/12/28 07:36:24;;;;;;;23.30;5.00;;;;;;;;;;5028597;28;20042;-64
2023/12/28 07:38:50;;;;;;;20.40;4.93;;;;;;;;;;5028156;28;20515;-64
2023/12/28 07:41:16;;;;;;;13.60;3.67;;;;;;;;;;5028342;28;20124;-64
2023/12/28 07:43:42;;;;;;;17.53;3.80;;;;;;;;;;5028347;28;20068;-64
2023/12/28 07:46:08;;;;;;;23.50;4.90;;;;;;;;;;5027961;28;20130;-63
2023/12/28 07:48:34;;;;;;;25.33;5.30;;;;;;;;;;5027924;28;20053;-64
2023/12/28 07:51:06;;;;;;;17.03;5.20;;;;;;;;;;5027930;28;20140;-64
2023/12/28 07:53:33;;;;;;;20.30;5.13;;;;;;;;;;5028131;28;20084;-64
2023/12/28 07:55:59;;;;;;;21.30;4.33;;;;;;;;;;5027659;28;20042;-63
2023/12/28 07:58:25;;;;;;;21.00;4.57;;;;;;;;;;5028182;28;20195;-64
2023/12/28 08:00:51;;;;;;;22.60;4.03;;;;;;;;;;5028184;28;20038;-63
2023/12/28 08:03:17;;;;;;;24.37;6.13;;;;;;;;;;5027923;28;20060;-64
2023/12/28 08:05:43;;;;;;;15.57;3.87;;;;;;;;;;5027807;28;20060;-64
2023/12/28 08:08:09;;;;;;;22.13;5.13;;;;;;;;;;5027482;28;20049;-64
2023/12/28 08:10:35;;;;;;;23.00;4.00;;;;;;;;;;5028080;28;20129;-64
2023/12/28 08:13:01;;;;;;;28.17;6.17;;;;;;;;;;5027843;28;20513;-63
2023/12/28 08:15:27;;;;;;;27.33;6.20;;;;;;;;;;5027556;28;20136;-63
2023/12/28 08:17:53;;;;;;;29.17;5.83;;;;;;;;;;5027262;28;20175;-64
2023/12/28 08:20:19;;;;;;;20.23;4.10;;;;;;;;;;5007841;28;20416;-64
2023/12/28 08:22:45;;;;;;;24.00;4.27;;;;;;;;;;5007830;28;20046;-64
2023/12/28 08:25:11;;;;;;;19.17;4.53;;;;;;;;;;5008402;28;20042;-64
2023/12/28 08:27:37;;;;;;;20.90;4.60;;;;;;;;;;5007553;28;20093;-64
2023/12/28 08:30:04;;;;;;;24.47;4.93;;;;;;;;;;5008111;28;20081;-63
2023/12/28 08:32:30;;;;;;;19.03;3.93;;;;;;;;;;5024369;28;20514;-64
2023/12/28 08:34:56;;;;;;;26.60;5.10;;;;;;;;;;5027327;28;20128;-63
2023/12/28 08:37:22;;;;;;;25.80;5.47;;;;;;;;;;5027290;28;20045;-63
2023/12/28 08:39:48;;;;;;;24.40;4.90;;;;;;;;;;5027381;28;20045;-63
2023/12/28 08:42:14;;;;;;;18.90;3.83;;;;;;;;;;5026198;28;20453;-63
2023/12/28 08:44:40;;;;;;;23.00;4.53;;;;;;;;;;5027475;28;20058;-63
2023/12/28 08:47:06;;;;;;;26.23;5.30;;;;;;;;;;5030334;28;20099;-63
2023/12/28 08:49:33;;;;;;;24.00;5.37;;;;;;;;;;5031647;28;20049;-63
2023/12/28 08:51:59;;;;;;;29.63;5.83;;;;;;;;;;5031043;28;20057;-63
2023/12/28 08:54:25;;;;;;;22.50;4.67;;;;;;;;;;5031239;28;20095;-63
2023/12/28 08:56:51;;;;;;;17.77;4.57;;;;;;;;;;5030847;28;20128;-63
2023/12/28 08:59:17;;;;;;;27.30;5.10;;;;;;;;;;5031199;28;20049;-63
2023/12/28 09:01:43;;;;;;;18.87;4.13;;;;;;;;;;5030337;28;20045;-63
2023/12/28 09:04:09;;;;;;;25.73;4.20;;;;;;;;;;5030138;28;20052;-63
2023/12/28 09:06:35;;;;;;;16.73;3.67;;;;;;;;;;5031100;28;20551;-63
2023/12/28 09:09:01;;;;;;;22.47;5.63;;;;;;;;;;5030732;28;20057;-63
2023/12/28 09:11:28;;;;;;;24.40;4.33;;;;;;;;;;5030407;28;20562;-63
2023/12/28 09:13:54;;;;;;;22.77;4.77;;;;;;;;;;5031034;28;20203;-63
2023/12/28 09:16:20;;;;;;;23.97;4.57;;;;;;;;;;5030562;28;20128;-63
2023/12/28 09:18:46;;;;;;;20.10;4.07;;;;;;;;;;5030986;28;20475;-63
2023/12/28 09:21:13;;;;;;;21.53;5.10;;;;;;;;;;5030784;28;20049;-63
2023/12/28 09:23:40;;;;;;;16.57;4.23;;;;;;;;;;5030729;28;20567;-63
2023/12/28 09:26:06;;;;;;;24.10;5.07;;;;;;;;;;5030383;28;20052;-63
2023/12/28 09:28:35;;;;;;;18.73;3.97;;;;;;;;;;5030473;28;20392;-63
2023/12/28 09:31:02;;;;;;;23.53;4.13;;;;;;;;;;5030960;28;20099;-63
2023/12/28 09:33:28;;;;;;;22.60;4.47;;;;;;;;;;5030790;28;20072;-63
2023/12/28 09:35:54;;;;;;;27.07;5.27;;;;;;;;;;5030458;28;20038;-63
2023/12/28 09:38:21;;;;;;;21.30;4.30;;;;;;;;;;5029990;28;20064;-63
2023/12/28 09:40:48;;;;;;;19.93;3.97;;;;;;;;;;5030250;28;20419;-62
2023/12/28 09:43:14;;;;;;;20.67;4.40;;;;;;;;;;5030359;28;20042;-62
2023/12/28 09:45:41;;;;;;;26.50;4.33;;;;;;;;;;5030400;28;20069;-63
2023/12/28 09:48:07;;;;;;;25.73;4.50;;;;;;;;;;5029786;28;20041;-62
2023/12/28 09:50:33;;;;;;;24.20;5.23;;;;;;;;;;5030644;28;20136;-63
2023/12/28 09:52:59;;;;;;;20.53;4.60;;;;;;;;;;5029905;28;20058;-63
2023/12/28 09:55:25;;;;;;;20.27;5.17;;;;;;;;;;5030326;28;20143;-63
2023/12/28 09:57:51;;;;;;;19.63;5.13;;;;;;;;;;5029227;28;20049;-63
2023/12/28 10:00:17;;;;;;;19.83;4.70;;;;;;;;;;5029728;28;20045;-63
2023/12/28 10:02:46;;;;;;;35.03;5.13;;;;;;;;;;5030305;28;20092;-63
2023/12/28 10:05:15;;;;;;;24.70;4.20;;;;;;;;;;5029774;28;20096;-63
2023/12/28 10:07:44;;;;;;;26.60;5.57;;;;;;;;;;5030022;28;20052;-63
2023/12/28 10:10:10;;;;;;;21.27;4.13;;;;;;;;;;5029518;28;20057;-63
2023/12/28 10:12:36;;;;;;;16.27;3.97;;;;;;;;;;5028423;28;20476;-63
2023/12/28 10:15:03;;;;;;;17.33;4.23;;;;;;;;;;5029344;28;20118;-63
2023/12/28 10:17:29;;;;;;;29.53;4.80;;;;;;;;;;5029414;28;20045;-63
2023/12/28 10:20:02;;;;;;;21.83;3.70;;;;;;;;;;5029644;28;20056;-63
2023/12/28 10:22:28;;;;;;;20.17;4.88;;;;;;;;;;5029430;28;20056;-63
2023/12/28 10:24:54;;;;;;;18.67;4.40;;;;;;;;;;5028951;28;20049;-63
2023/12/28 10:27:20;;;;;;;27.53;5.30;;;;;;;;;;5029207;28;20049;-63
2023/12/28 10:29:46;;;;;;;18.33;4.10;;;;;;;;;;5029391;28;20049;-63
2023/12/28 10:32:12;;;;;;;21.57;4.30;;;;;;;;;;5029324;28;20075;-63
2023/12/28 10:34:38;;;;;;;21.07;4.67;;;;;;;;;;5029498;28;20085;-63
2023/12/28 10:37:05;;;;;;;21.77;4.30;;;;;;;;;;5028754;28;20080;-63
2023/12/28 10:39:32;;;;;;;18.87;4.77;;;;;;;;;;5029243;28;20053;-63
2023/12/28 10:42:00;;;;;;;19.30;4.77;;;;;;;;;;5028873;28;20050;-63
2023/12/28 10:44:28;;;;;;;19.20;3.67;;;;;;;;;;5028810;28;20057;-63
2023/12/28 10:46:58;;;;;;;21.23;4.57;;;;;;;;;;5029124;28;20041;-63
2023/12/28 10:49:25;;;;;;;17.63;4.00;;;;;;;;;;5028495;28;20037;-63
2023/12/28 10:51:52;;;;;;;17.60;3.60;;;;;;;;;;5028731;28;20042;-63
2023/12/28 10:54:18;;;;;;;19.90;3.77;;;;;;;;;;5029185;28;20045;-63
2023/12/28 10:56:47;;;;;;;17.97;4.00;;;;;;;;;;5028552;28;20560;-63
2023/12/28 10:59:13;;;;;;;31.53;4.33;;;;;;;;;;5028603;28;20056;-63
2023/12/28 11:01:40;;;;;;;16.83;3.33;;;;;;;;;;5029149;28;20049;-63
2023/12/28 11:04:25;;;;;;;24.93;4.13;;;;;;;;;;5029094;28;20042;-63
2023/12/28 11:06:51;;;;;;;22.03;4.50;;;;;;;;;;5028702;28;20503;-63
2023/12/28 11:09:17;;;;;;;20.10;3.60;;;;;;;;;;5028050;28;20041;-63
2023/12/28 11:11:44;;;;;;;23.87;4.20;;;;;;;;;;5028195;28;20055;-63
2023/12/28 11:14:11;;;;;;;27.57;5.73;;;;;;;;;;5028499;28;20384;-63
2023/12/28 11:16:38;;;;;;;16.00;3.60;;;;;;;;;;5028596;28;20037;-63
2023/12/28 11:19:04;;;;;;;17.47;3.90;;;;;;;;;;5028711;28;20417;-63
2023/12/28 11:21:30;;;;;;;21.00;4.83;;;;;;;;;;5028636;28;20038;-63
2023/12/28 11:23:57;;;;;;;24.60;4.20;;;;;;;;;;5027838;28;20041;-63
2023/12/28 11:26:23;;;;;;;17.07;3.77;;;;;;;;;;5028363;28;20087;-63
2023/12/28 11:28:49;;;;;;;24.30;3.60;;;;;;;;;;5027219;28;20045;-63
2023/12/28 11:31:16;;;;;;;18.63;3.53;;;;;;;;;;5028502;28;20045;-63
2023/12/28 11:33:46;;;;;;;19.30;3.97;;;;;;;;;;5028059;28;20045;-63
2023/12/28 11:36:13;;;;;;;11.70;3.37;;;;;;;;;;5028759;28;20041;-63
2023/12/28 11:38:41;;;;;;;17.93;3.70;;;;;;;;;;5028266;28;20539;-63
2023/12/28 11:41:07;;;;;;;17.10;3.07;;;;;;;;;;5027895;28;20500;-63
2023/12/28 11:43:35;;;;;;;23.70;4.30;;;;;;;;;;5027928;28;20522;-63
2023/12/28 11:46:05;;;;;;;21.53;4.70;;;;;;;;;;5027591;28;20096;-63
2023/12/28 11:48:31;;;;;;;26.40;6.10;;;;;;;;;;5028279;28;20391;-63
2023/12/28 11:50:58;;;;;;;26.37;5.23;;;;;;;;;;5028159;28;20060;-63
2023/12/28 11:53:24;;;;;;;22.47;5.33;;;;;;;;;;5027636;28;20061;-63
2023/12/28 11:55:51;;;;;;;28.57;5.00;;;;;;;;;;5028237;28;20095;-64
2023/12/28 11:58:18;;;;;;;18.00;4.17;;;;;;;;;;5028228;28;20049;-63
2023/12/28 12:00:44;;;;;;;27.90;4.33;;;;;;;;;;5027390;28;20053;-63
2023/12/28 12:03:11;;;;;;;21.13;5.37;;;;;;;;;;5028137;28;20053;-63
2023/12/28 12:05:37;;;;;;;20.97;4.23;;;;;;;;;;5027928;28;20056;-63
2023/12/28 12:08:04;;;;;;;22.47;4.77;;;;;;;;;;5027846;28;20076;-63
2023/12/28 12:10:32;;;;;;;23.80;5.10;;;;;;;;;;5027620;28;20115;-63
2023/12/28 12:13:02;;;;;;;21.37;3.53;;;;;;;;;;5027359;28;20116;-63
2023/12/28 12:15:29;;;;;;;20.83;4.20;;;;;;;;;;5027805;28;20095;-62
2023/12/28 12:18:00;;;;;;;24.93;5.30;;;;;;;;;;5027480;28;20052;-62
2023/12/28 12:20:29;;;;;;;26.57;5.30;;;;;;;;;;5030429;28;20507;-62
2023/12/28 12:22:57;;;;;;;27.50;5.77;;;;;;;;;;5031912;28;20041;-62
2023/12/28 12:25:23;;;;;;;23.27;4.67;;;;;;;;;;5031824;28;20049;-63
2023/12/28 12:27:50;;;;;;;23.60;5.33;;;;;;;;;;5031098;28;20534;-62
2023/12/28 12:30:16;;;;;;;26.70;5.40;;;;;;;;;;5031603;28;20427;-63
2023/12/28 12:32:44;;;;;;;20.40;4.60;;;;;;;;;;5030309;28;20049;-62
2023/12/28 12:35:11;;;;;;;25.80;4.50;;;;;;;;;;5031428;28;20512;-63
2023/12/28 12:37:37;;;;;;;26.90;4.63;;;;;;;;;;5031141;28;20495;-63
2023/12/28 12:40:05;;;;;;;20.03;3.87;;;;;;;;;;5031102;28;20044;-62
2023/12/28 12:42:32;;;;;;;29.47;6.10;;;;;;;;;;5031393;28;20056;-62
2023/12/28 12:44:58;;;;;;;25.53;4.30;;;;;;;;;;5031284;28;20088;-63
2023/12/28 12:47:24;;;;;;;25.17;4.80;;;;;;;;;;5030900;28;20504;-62
2023/12/28 12:49:52;;;;;;;23.03;4.33;;;;;;;;;;5031163;28;20085;-62
2023/12/28 12:52:20;;;;;;;21.43;4.00;;;;;;;;;;5031289;28;20496;-62
2023/12/28 12:54:53;;;;;;;28.90;5.60;;;;;;;;;;5031031;28;20045;-62
2023/12/28 12:57:20;;;;;;;27.08;5.13;;;;;;;;;;5031031;28;20045;-63
2023/12/28 12:59:46;;;;;;;23.37;4.57;;;;;;;;;;5030888;28;20469;-62
2023/12/28 13:02:13;;;;;;;27.67;5.23;;;;;;;;;;5031162;28;20321;-62
2023/12/28 13:04:39;;;;;;;19.90;4.20;;;;;;;;;;5030913;28;20064;-62
2023/12/28 13:07:05;;;;;;;19.93;3.93;;;;;;;;;;5031103;28;20585;-62
2023/12/28 13:09:31;;;;;;;23.03;4.63;;;;;;;;;;5029973;28;20103;-62
2023/12/28 13:11:57;;;;;;;23.70;4.73;;;;;;;;;;5031360;28;20049;-62
2023/12/28 13:14:23;;;;;;;26.13;4.30;;;;;;;;;;5030963;28;20042;-63
2023/12/28 13:16:54;;;;;;;24.23;5.47;;;;;;;;;;5030701;28;20042;-62
2023/12/28 13:19:20;;;;;;;23.30;5.53;;;;;;;;;;5030098;28;20060;-63
2023/12/28 13:21:46;;;;;;;23.17;5.30;;;;;;;;;;5030552;28;20064;-62
2023/12/28 13:24:12;;;;;;;21.47;4.50;;;;;;;;;;5031288;28;20037;-62
2023/12/28 13:26:38;;;;;;;23.50;4.67;;;;;;;;;;5030693;28;20393;-62
2023/12/28 13:29:04;;;;;;;24.23;5.37;;;;;;;;;;5030668;28;20124;-63
2023/12/28 13:31:30;;;;;;;27.13;5.33;;;;;;;;;;5029455;28;20132;-62
2023/12/28 13:33:56;;;;;;;21.20;4.53;;;;;;;;;;5030148;28;20048;-62
2023/12/28 13:36:26;;;;;;;20.17;4.37;;;;;;;;;;5030353;28;20045;-62
2023/12/28 13:38:52;;;;;;;21.20;5.43;;;;;;;;;;5029893;28;20077;-62
2023/12/28 13:41:18;;;;;;;20.07;4.77;;;;;;;;;;5030094;28;20522;-62
2023/12/28 13:43:44;;;;;;;33.60;7.17;;;;;;;;;;5029987;28;20059;-62
2023/12/28 13:46:10;;;;;;;26.40;4.10;;;;;;;;;;5030584;28;20046;-62
2023/12/28 13:48:39;;;;;;;25.50;5.10;;;;;;;;;;5030438;28;20108;-62
2023/12/28 13:51:05;;;;;;;23.30;4.73;;;;;;;;;;5029846;28;20437;-62
2023/12/28 13:53:34;;;;;;;21.87;4.37;;;;;;;;;;5029796;28;20475;-62
2023/12/28 13:56:00;;;;;;;26.53;4.83;;;;;;;;;;5030050;28;20060;-62
2023/12/28 13:58:28;;;;;;;25.57;4.60;;;;;;;;;;5030180;28;20049;-62
2023/12/28 14:00:54;;;;;;;16.73;3.60;;;;;;;;;;5030025;28;20187;-62
2023/12/28 14:03:20;;;;;;;21.30;5.00;;;;;;;;;;5030140;28;20102;-62
2023/12/28 14:05:46;;;;;;;19.27;3.80;;;;;;;;;;5029374;28;20491;-62
2023/12/28 14:08:12;;;;;;;21.80;3.97;;;;;;;;;;5029593;28;20047;-63
2023/12/28 14:10:38;;;;;;;19.27;3.97;;;;;;;;;;5030159;28;20045;-62
2023/12/28 14:13:05;;;;;;;19.80;5.03;;;;;;;;;;5029810;28;20496;-62
2023/12/28 14:15:31;;;;;;;18.73;4.50;;;;;;;;;;5029849;28;20448;-63
2023/12/28 14:17:57;;;;;;;25.63;4.60;;;;;;;;;;5028904;28;20504;-63
2023/12/28 14:20:23;;;;;;;22.13;6.07;;;;;;;;;;5029673;28;20088;-62
2023/12/28 14:22:49;;;;;;;22.03;3.73;;;;;;;;;;5029122;28;20045;-62
2023/12/28 14:25:15;;;;;;;22.47;4.20;;;;;;;;;;5029783;28;20041;-62
2023/12/28 14:27:41;;;;;;;19.47;4.20;;;;;;;;;;5029644;28;20046;-62
2023/12/28 14:30:09;;;;;;;28.40;4.67;;;;;;;;;;5029652;28;20049;-62